Jump to content


SOUTHWEST AIRLINES FLIGHT WN1783 FLOWN ON 02-14-2018 BY CAPTAIN JIM BOERMAN

Pilot StatsCaptain Jim Boerman (LDP136) • 4,945.1 total hours • 1,489 total flights [View Logbook]
FLIGHT DETAILS
StatusReceived and approved on 2018-02-14 at 11:02:27
Origin AirportDenver Intl (KDEN) • Denver, Colorado, United States (5,430 feet MSL)
Filed Flight PlanKDEN AVVVS J154 OCS J163 PIH J20 DNJ J82 BTG KPDX
Destination AirportPortland Intl (KPDX) • Portland, Oregon, United States (30 feet MSL)
Alternate AirportMahlon Sweet (KEUG) • Eugene, Oregon, United States (369 feet MSL)
AirlineSouthwest Airlines
AircraftBoeing 737-700 | Winglets (73W / B737-700)
FS Aircraft UsedPMDG 737-700NGX SOUTHWEST AIRLINES "SHARK WEEK" N422WN
Cruising AltitudeFL360
Distance Flown859 nautical miles
Passengers Onboard69 passengers (50.74% full)
DEPARTURE DETAILS
Time Out06:26:24
Taxi Data124,657 lbs total with 19,657 lbs of fuel onboard
Takeoff Data06:43:03 (17 minutes after leaving gate/ramp) • 124,011 lbs total • 10° pitch at 146 knots
Departure METARKDEN 141153Z 23003KT 10SM BKN220 06/M09 A2999 RMK AO2 SLP128 T00561089 10056 20000 56012
ARRIVAL DETAILS
Landing Data08:10:29 • 112,262 lbs total • 3° pitch doing 111 knots at a rate of -173.01 feet/minute with 6,877 lbs of fuel onboard
Time In08:21:02 (11 minutes after landing)
Ramp Weight111,877 lbs total
Total Fuel Used12,780 lbs
Total Block Time02:54:38 (2.9 hours) while 27 minutes were spent on the ground
Arrival METARKPDX 141553Z 00000KT 10SM -RA OVC009 03/02 A3007 RMK AO2 SLP181 P0003 T00330022
MISCELLANEOUS DETAILS
LiveDISPATCH Version4.8.3.1
FS Version
FSUIPC Version5.12
OS VersionWindows 7 32-bit
Screen Resolution1920 x 1080
Pilot's CommentsNo Comments Reported
FLIGHT MAP